Time;durP1;ratioP1;P1;durP2;ratioP2;P2;SDS_P1;SDS_P2;PMS_P1;PMS_P2;Temp;Humidity;BMP_temperature;BMP_pressure;BME280_temperature;BME280_humidity;BME280_pressure;Samples;Min_cycle;Max_cycle;Signal;HPM_P1;HPM_P2
2023/04/26 00:02:07;;;;;;;1.50;0.80;;;4.90;99.90;;;;;;5045101;28;20029;-86
2023/04/26 00:04:33;;;;;;;1.50;0.95;;;4.90;99.90;;;;;;5086141;28;20032;-86
2023/04/26 00:06:59;;;;;;;2.28;1.00;;;4.90;99.90;;;;;;5042656;28;20171;-86
2023/04/26 00:09:25;;;;;;;1.42;0.82;;;4.80;99.90;;;;;;5063951;28;20119;-86
2023/04/26 00:11:51;;;;;;;2.00;1.10;;;4.90;99.90;;;;;;5073894;28;20211;-86
2023/04/26 00:14:16;;;;;;;1.58;1.00;;;4.90;99.90;;;;;;5083824;28;20030;-86
2023/04/26 00:16:42;;;;;;;1.30;0.80;;;4.90;99.90;;;;;;5046293;28;20127;-86
2023/04/26 00:19:09;;;;;;;1.40;0.88;;;4.90;99.90;;;;;;5056647;28;20128;-86
2023/04/26 00:21:35;;;;;;;2.33;0.90;;;5.00;99.90;;;;;;5069383;28;20024;-86
2023/04/26 00:24:01;;;;;;;1.38;0.73;;;5.00;99.90;;;;;;5060885;28;20040;-86
2023/04/26 00:26:27;;;;;;;1.80;1.00;;;5.00;99.90;;;;;;5052917;28;20089;-86
2023/04/26 00:28:53;;;;;;;1.20;0.60;;;5.10;99.90;;;;;;5049517;28;20036;-86
2023/04/26 00:31:18;;;;;;;1.50;0.90;;;5.00;99.90;;;;;;5073460;28;20048;-86
2023/04/26 00:33:44;;;;;;;1.40;0.70;;;5.00;99.90;;;;;;5060919;28;20052;-86
2023/04/26 00:36:12;;;;;;;1.38;0.80;;;5.00;99.90;;;;;;5059928;28;20032;-86
2023/04/26 00:38:37;;;;;;;2.15;1.13;;;5.00;99.90;;;;;;5074652;28;20058;-86
2023/04/26 00:41:04;;;;;;;1.50;0.90;;;5.00;99.90;;;;;;5056668;28;20486;-86
2023/04/26 00:43:30;;;;;;;1.70;0.85;;;5.00;99.90;;;;;;5040729;28;20032;-86
2023/04/26 00:45:55;;;;;;;1.23;0.80;;;5.00;99.90;;;;;;5039611;28;20032;-86
2023/04/26 00:48:21;;;;;;;1.30;0.88;;;5.00;99.90;;;;;;5052122;28;20037;-86
2023/04/26 00:50:47;;;;;;;1.45;0.75;;;5.00;99.90;;;;;;5049676;28;20051;-86
2023/04/26 00:53:15;;;;;;;1.30;0.75;;;5.00;99.90;;;;;;5031221;28;20044;-86
2023/04/26 00:55:41;;;;;;;1.30;0.80;;;5.00;99.90;;;;;;5073869;28;20501;-85
2023/04/26 00:58:07;;;;;;;1.48;0.80;;;5.00;99.90;;;;;;5068790;28;20057;-86
2023/04/26 01:00:33;;;;;;;2.78;0.93;;;5.00;99.90;;;;;;5070719;28;20448;-86
2023/04/26 01:02:59;;;;;;;1.50;0.90;;;5.00;99.90;;;;;;5064322;28;20033;-86
2023/04/26 01:05:25;;;;;;;1.65;0.90;;;5.00;99.90;;;;;;5047249;28;20051;-86
2023/04/26 01:07:51;;;;;;;1.15;0.70;;;5.00;99.90;;;;;;5055530;28;20039;-86
2023/04/26 01:10:17;;;;;;;2.38;1.08;;;5.10;99.90;;;;;;5057736;28;20029;-86
2023/04/26 01:12:43;;;;;;;1.83;1.15;;;5.00;99.90;;;;;;5064590;28;20382;-85
2023/04/26 01:15:10;;;;;;;1.58;0.90;;;5.10;99.90;;;;;;5055099;28;20038;-86
2023/04/26 01:17:38;;;;;;;2.00;0.90;;;5.10;99.90;;;;;;5065917;28;20044;-86
2023/04/26 01:20:05;;;;;;;1.98;1.13;;;5.10;99.90;;;;;;5080841;28;20036;-86
2023/04/26 01:22:35;;;;;;;2.00;1.15;;;5.10;99.90;;;;;;5081815;28;20024;-86
2023/04/26 01:25:03;;;;;;;1.60;0.90;;;5.10;99.90;;;;;;5075506;28;20028;-86
2023/04/26 01:27:29;;;;;;;1.52;0.85;;;5.10;99.90;;;;;;5059276;28;20454;-86
2023/04/26 01:29:54;;;;;;;1.20;0.75;;;5.10;99.90;;;;;;5055332;28;20128;-86
2023/04/26 01:32:20;;;;;;;1.80;1.20;;;5.10;99.90;;;;;;5069116;28;20040;-86
2023/04/26 01:34:46;;;;;;;1.98;1.10;;;5.10;99.90;;;;;;5083573;28;20039;-86
2023/04/26 01:37:12;;;;;;;1.95;1.25;;;5.10;99.90;;;;;;5039941;28;20422;-86
2023/04/26 01:39:37;;;;;;;2.15;1.30;;;5.10;99.90;;;;;;5081813;28;20047;-86
2023/04/26 01:42:04;;;;;;;2.30;1.30;;;5.10;99.90;;;;;;5054326;28;20037;-85
2023/04/26 01:44:30;;;;;;;2.03;1.23;;;5.10;99.90;;;;;;5068737;28;20116;-86
2023/04/26 01:46:55;;;;;;;1.80;1.10;;;5.10;99.90;;;;;;5047150;28;20124;-86
2023/04/26 01:49:21;;;;;;;1.88;1.00;;;5.10;99.90;;;;;;5042262;28;20043;-86
2023/04/26 01:51:47;;;;;;;1.50;1.00;;;5.10;99.90;;;;;;5059004;28;20028;-85
2023/04/26 01:54:13;;;;;;;3.13;1.40;;;5.10;99.90;;;;;;5054771;28;20029;-86
2023/04/26 01:56:38;;;;;;;1.50;1.00;;;5.10;99.90;;;;;;5058307;28;20175;-86
2023/04/26 01:59:04;;;;;;;3.67;1.30;;;5.10;99.90;;;;;;5074988;28;20067;-86
2023/04/26 02:01:30;;;;;;;2.00;1.17;;;5.10;99.90;;;;;;5075426;28;20090;-86
2023/04/26 02:03:55;;;;;;;1.45;1.02;;;5.10;99.90;;;;;;5036512;28;20047;-86
2023/04/26 02:06:21;;;;;;;1.80;1.10;;;5.10;99.90;;;;;;5054823;28;20481;-86
2023/04/26 02:08:48;;;;;;;2.72;1.50;;;5.10;99.90;;;;;;5044282;28;20402;-86
2023/04/26 02:11:14;;;;;;;2.70;1.58;;;5.10;99.90;;;;;;5038412;28;20060;-86
2023/04/26 02:13:39;;;;;;;2.42;1.40;;;5.10;99.90;;;;;;5070921;28;20032;-86
2023/04/26 02:16:06;;;;;;;2.95;1.88;;;5.10;99.90;;;;;;5041917;28;20032;-86
2023/04/26 02:18:32;;;;;;;2.35;1.50;;;5.10;99.90;;;;;;5054569;28;20044;-86
2023/04/26 02:20:58;;;;;;;2.35;1.63;;;5.10;99.90;;;;;;5055236;28;20040;-86
2023/04/26 02:23:23;;;;;;;2.40;1.63;;;5.10;99.90;;;;;;5081120;28;20056;-86
2023/04/26 02:25:49;;;;;;;2.80;1.75;;;5.10;99.90;;;;;;5063830;28;20040;-86
2023/04/26 02:28:15;;;;;;;2.55;1.60;;;5.00;99.90;;;;;;5079010;28;20035;-86
2023/04/26 02:30:41;;;;;;;2.40;1.55;;;5.00;99.90;;;;;;5056622;28;20122;-86
2023/04/26 02:33:07;;;;;;;2.97;1.80;;;4.90;99.90;;;;;;5058290;28;20367;-86
2023/04/26 02:35:35;;;;;;;2.38;1.40;;;4.90;99.90;;;;;;5058917;28;20064;-86
2023/04/26 02:38:00;;;;;;;2.85;1.70;;;4.90;99.90;;;;;;5059208;28;20107;-86
2023/04/26 02:40:26;;;;;;;2.00;1.40;;;4.80;99.90;;;;;;5058782;28;20487;-86
2023/04/26 02:42:52;;;;;;;2.45;1.60;;;4.80;99.90;;;;;;5050997;28;20119;-86
2023/04/26 02:45:18;;;;;;;2.17;1.40;;;4.80;99.90;;;;;;5052407;28;20405;-86
2023/04/26 02:47:43;;;;;;;2.30;1.45;;;4.90;99.90;;;;;;5058613;28;20105;-86
2023/04/26 02:50:09;;;;;;;3.75;1.40;;;4.80;99.90;;;;;;5041875;28;20041;-86
2023/04/26 02:52:36;;;;;;;2.15;1.30;;;4.90;99.90;;;;;;5070329;28;20132;-86
2023/04/26 02:55:05;;;;;;;1.75;1.23;;;4.90;99.90;;;;;;5065352;28;20040;-86
2023/04/26 02:57:31;;;;;;;2.78;1.52;;;4.90;99.90;;;;;;5075189;28;20375;-86
2023/04/26 02:59:57;;;;;;;2.65;1.50;;;4.90;99.90;;;;;;5054518;28;20119;-86
2023/04/26 03:02:23;;;;;;;2.58;1.83;;;4.90;99.90;;;;;;5059373;28;20039;-86
2023/04/26 03:04:49;;;;;;;2.50;1.67;;;4.90;99.90;;;;;;5079377;28;20025;-86
2023/04/26 03:07:15;;;;;;;3.03;1.50;;;5.00;99.90;;;;;;5075045;28;20490;-86
2023/04/26 03:09:41;;;;;;;3.30;1.35;;;5.00;99.90;;;;;;5053239;28;20064;-86
2023/04/26 03:12:07;;;;;;;1.98;1.20;;;5.00;99.90;;;;;;5076083;28;20035;-86
2023/04/26 03:14:33;;;;;;;1.52;1.00;;;5.00;99.90;;;;;;5060364;28;20040;-86
2023/04/26 03:16:59;;;;;;;2.58;1.30;;;5.00;99.90;;;;;;5057893;28;20564;-86
2023/04/26 03:19:27;;;;;;;2.40;1.40;;;5.00;99.90;;;;;;5045855;28;20039;-86
2023/04/26 03:21:53;;;;;;;2.53;1.75;;;4.90;99.90;;;;;;5061484;28;20036;-86
2023/04/26 03:24:19;;;;;;;2.60;1.48;;;4.90;99.90;;;;;;5061924;28;20039;-87
2023/04/26 03:26:45;;;;;;;2.33;1.20;;;4.90;99.90;;;;;;5045004;28;20397;-87
2023/04/26 03:29:11;;;;;;;2.28;1.27;;;4.90;99.90;;;;;;5044318;28;20048;-87
2023/04/26 03:31:37;;;;;;;2.83;1.50;;;4.90;99.90;;;;;;5041350;28;20037;-86
2023/04/26 03:34:03;;;;;;;3.13;1.50;;;5.00;99.90;;;;;;5047230;28;20122;-86
2023/04/26 03:36:30;;;;;;;2.70;1.60;;;4.90;99.90;;;;;;5057824;28;20044;-86
2023/04/26 03:38:56;;;;;;;2.53;1.52;;;5.00;99.90;;;;;;5041219;28;20039;-87
2023/04/26 03:41:22;;;;;;;2.40;1.42;;;4.90;99.90;;;;;;5041382;28;20576;-87
2023/04/26 03:43:48;;;;;;;2.00;1.33;;;5.00;99.90;;;;;;5027869;28;20237;-87
2023/04/26 03:46:14;;;;;;;2.55;1.60;;;5.00;99.90;;;;;;5071668;28;20538;-89
2023/04/26 03:48:40;;;;;;;2.25;1.40;;;5.00;99.90;;;;;;5058237;28;20188;-87
2023/04/26 03:51:06;;;;;;;2.25;1.40;;;5.00;99.90;;;;;;5045328;28;20060;-87
2023/04/26 03:53:32;;;;;;;1.95;1.48;;;5.00;99.90;;;;;;5090893;28;20404;-86
2023/04/26 03:55:58;;;;;;;3.90;1.70;;;5.00;99.90;;;;;;5079071;28;20130;-87
2023/04/26 03:58:27;;;;;;;3.03;1.90;;;5.00;99.90;;;;;;5043435;28;20032;-86
2023/04/26 04:00:57;;;;;;;2.55;1.77;;;5.00;99.90;;;;;;5057694;28;20132;-86
2023/04/26 04:03:23;;;;;;;2.95;1.63;;;5.00;99.90;;;;;;5048424;28;20110;-86
2023/04/26 04:05:48;;;;;;;3.13;2.15;;;5.00;99.90;;;;;;5071268;28;20043;-86
2023/04/26 04:08:14;;;;;;;3.47;2.03;;;5.00;99.90;;;;;;5048854;28;20043;-87
2023/04/26 04:10:41;;;;;;;3.00;1.70;;;4.90;99.90;;;;;;5073768;28;20055;-86
2023/04/26 04:13:07;;;;;;;3.20;1.90;;;4.90;99.90;;;;;;5042552;28;20553;-86
2023/04/26 04:15:33;;;;;;;3.20;1.80;;;4.90;99.90;;;;;;5077888;28;20036;-86
2023/04/26 04:17:59;;;;;;;4.38;1.77;;;4.90;99.90;;;;;;5065247;28;20038;-86
2023/04/26 04:20:24;;;;;;;2.53;1.65;;;4.90;99.90;;;;;;5024112;28;20037;-86
2023/04/26 04:22:50;;;;;;;3.70;2.13;;;5.00;99.90;;;;;;5042006;28;20390;-86
2023/04/26 04:25:16;;;;;;;3.65;2.17;;;5.00;99.90;;;;;;5060440;28;20062;-86
2023/04/26 04:27:42;;;;;;;3.28;2.28;;;5.00;99.90;;;;;;5057609;28;20533;-84
2023/04/26 04:30:08;;;;;;;4.80;2.95;;;5.00;99.90;;;;;;5070993;28;20052;-85
2023/04/26 04:32:35;;;;;;;4.78;3.10;;;5.00;99.90;;;;;;5072518;28;20037;-84
2023/04/26 04:35:02;;;;;;;4.07;2.65;;;5.00;99.90;;;;;;5082722;28;20028;-85
2023/04/26 04:37:27;;;;;;;4.38;2.60;;;5.00;99.90;;;;;;5050471;28;20044;-85
2023/04/26 04:39:54;;;;;;;4.40;2.40;;;5.00;99.90;;;;;;5088362;28;20454;-84
2023/04/26 04:42:21;;;;;;;3.35;2.35;;;5.00;99.90;;;;;;5072474;28;20037;-84
2023/04/26 04:44:49;;;;;;;4.00;2.67;;;5.00;99.90;;;;;;5074163;28;20370;-84
2023/04/26 04:47:14;;;;;;;4.82;2.72;;;5.10;99.90;;;;;;5042711;28;20024;-84
2023/04/26 04:49:42;;;;;;;3.63;2.30;;;5.00;99.90;;;;;;5071937;28;20670;-84
2023/04/26 04:52:07;;;;;;;3.97;2.58;;;5.00;99.90;;;;;;5043548;28;20045;-84
2023/04/26 04:54:33;;;;;;;5.78;3.08;;;5.10;99.90;;;;;;5048685;28;20175;-84
2023/04/26 04:57:00;;;;;;;5.10;3.33;;;5.10;99.90;;;;;;5079341;28;20107;-84
2023/04/26 04:59:26;;;;;;;5.03;3.33;;;5.10;99.90;;;;;;5076512;28;20040;-84
2023/04/26 05:01:51;;;;;;;4.55;2.95;;;5.10;99.90;;;;;;5056993;28;20041;-84
2023/04/26 05:04:17;;;;;;;4.90;3.13;;;5.10;99.90;;;;;;5083580;28;20032;-84
2023/04/26 05:06:43;;;;;;;6.13;3.00;;;5.10;99.90;;;;;;5095746;28;20090;-84
2023/04/26 05:09:09;;;;;;;4.07;2.55;;;5.10;99.90;;;;;;5051065;28;20037;-84
2023/04/26 05:11:35;;;;;;;4.30;2.58;;;5.10;99.90;;;;;;5068510;28;20449;-85
2023/04/26 05:14:00;;;;;;;4.55;3.00;;;5.10;99.90;;;;;;5050868;28;20036;-85
2023/04/26 05:16:26;;;;;;;5.78;3.05;;;5.10;99.90;;;;;;5061755;28;20101;-84
2023/04/26 05:18:52;;;;;;;5.82;3.08;;;5.00;99.90;;;;;;5040641;28;20093;-85
2023/04/26 05:21:18;;;;;;;5.32;2.60;;;5.10;99.90;;;;;;5083166;28;20032;-85
2023/04/26 05:23:44;;;;;;;6.03;3.53;;;5.10;99.90;;;;;;5091728;28;20036;-85
2023/04/26 05:26:14;;;;;;;5.50;3.53;;;5.10;99.90;;;;;;5040666;28;20039;-85
2023/04/26 05:28:40;;;;;;;6.65;3.85;;;5.10;99.90;;;;;;5056714;28;20124;-84
2023/04/26 05:31:06;;;;;;;6.10;3.45;;;5.00;99.90;;;;;;5075364;28;20496;-84
2023/04/26 05:33:31;;;;;;;6.53;2.83;;;5.00;99.90;;;;;;5060357;28;20050;-85
2023/04/26 05:35:58;;;;;;;5.82;2.83;;;5.00;99.90;;;;;;5023194;28;20036;-85
2023/04/26 05:38:24;;;;;;;9.00;6.05;;;4.90;99.90;;;;;;5022884;28;20203;-85
2023/04/26 05:40:50;;;;;;;7.38;4.95;;;4.90;99.90;;;;;;5056187;28;20553;-85
2023/04/26 05:43:16;;;;;;;7.55;6.35;;;4.90;99.90;;;;;;5039685;28;20120;-85
2023/04/26 05:45:55;;;;;;;10.23;7.93;;;4.90;99.90;;;;;;5074432;28;20035;-85
2023/04/26 05:48:22;;;;;;;17.75;8.00;;;4.90;99.90;;;;;;5073288;28;20064;-84
2023/04/26 05:50:49;;;;;;;10.48;5.18;;;4.90;99.90;;;;;;5074236;28;20060;-85
2023/04/26 05:53:15;;;;;;;10.07;4.20;;;4.90;99.90;;;;;;5074098;28;20028;-84
2023/04/26 05:55:41;;;;;;;4.30;2.35;;;4.90;99.90;;;;;;5056470;28;20029;-85
2023/04/26 05:58:07;;;;;;;6.03;4.50;;;4.90;99.90;;;;;;5055829;28;20068;-84
2023/04/26 06:00:33;;;;;;;7.47;5.03;;;4.90;99.90;;;;;;5040199;28;20040;-85
2023/04/26 06:02:59;;;;;;;4.57;3.40;;;4.90;99.90;;;;;;5074388;28;20028;-85
2023/04/26 06:05:25;;;;;;;7.95;5.00;;;4.90;99.90;;;;;;5039987;28;20033;-85
2023/04/26 06:07:51;;;;;;;9.52;6.60;;;4.90;99.90;;;;;;5045569;28;20422;-85
2023/04/26 06:10:16;;;;;;;6.10;3.95;;;5.00;99.90;;;;;;5063338;28;20035;-85
2023/04/26 06:12:43;;;;;;;2.55;1.88;;;4.90;99.90;;;;;;5063636;28;20041;-84
2023/04/26 06:15:09;;;;;;;1.80;0.90;;;4.90;99.90;;;;;;5063661;28;20448;-84
2023/04/26 06:17:35;;;;;;;1.45;0.90;;;4.90;99.90;;;;;;5046673;28;20043;-84
2023/04/26 06:20:01;;;;;;;2.50;1.05;;;4.80;99.90;;;;;;5063316;28;20032;-84
2023/04/26 06:22:27;;;;;;;2.22;0.80;;;4.80;99.90;;;;;;5063409;28;20028;-84
2023/04/26 06:24:52;;;;;;;1.33;0.70;;;4.80;99.90;;;;;;5063732;28;20375;-84
2023/04/26 06:27:18;;;;;;;1.05;0.65;;;4.80;99.90;;;;;;5063415;28;20028;-84
2023/04/26 06:29:44;;;;;;;1.08;0.60;;;4.70;99.90;;;;;;5046272;28;20052;-84
2023/04/26 06:32:10;;;;;;;0.85;0.40;;;4.70;99.90;;;;;;5063293;28;20060;-84
2023/04/26 06:34:36;;;;;;;1.35;0.77;;;4.60;99.90;;;;;;5062941;28;20036;-84
2023/04/26 06:37:03;;;;;;;0.98;0.73;;;4.50;99.90;;;;;;5080830;28;20119;-84
2023/04/26 06:39:29;;;;;;;1.10;0.60;;;4.50;99.90;;;;;;5046267;28;20487;-84
2023/04/26 06:41:55;;;;;;;3.42;1.75;;;4.50;99.90;;;;;;5047093;28;20041;-84
2023/04/26 06:44:20;;;;;;;5.25;2.25;;;4.60;99.90;;;;;;5082747;28;20028;-84
2023/04/26 06:46:46;;;;;;;7.68;3.97;;;4.60;99.90;;;;;;5066132;28;20085;-84
2023/04/26 06:49:12;;;;;;;4.93;2.67;;;4.60;99.90;;;;;;5074098;28;20498;-84
2023/04/26 06:51:37;;;;;;;3.58;1.92;;;4.70;99.90;;;;;;5063153;28;20043;-84
2023/04/26 06:54:03;;;;;;;3.22;1.30;;;4.80;99.90;;;;;;5063119;28;20028;-84
2023/04/26 06:56:29;;;;;;;1.65;0.70;;;4.90;99.90;;;;;;5080873;28;20032;-84
2023/04/26 06:59:03;;;;;;;0.98;0.60;;;5.00;99.90;;;;;;5081152;28;20028;-84
2023/04/26 07:01:32;;;;;;;2.20;0.50;;;5.10;99.90;;;;;;5062734;28;20115;-84
2023/04/26 07:04:00;;;;;;;1.20;0.60;;;5.10;99.90;;;;;;5083872;28;20100;-84
2023/04/26 07:06:30;;;;;;;2.22;0.90;;;5.20;99.90;;;;;;5086188;28;20035;-84
2023/04/26 07:08:57;;;;;;;2.63;0.90;;;5.30;99.90;;;;;;5083291;28;20122;-84
2023/04/26 07:11:23;;;;;;;2.42;1.80;;;5.30;99.90;;;;;;5082501;28;20035;-84
2023/04/26 07:13:49;;;;;;;2.08;1.40;;;5.30;99.90;;;;;;5082835;28;20036;-84
2023/04/26 07:16:15;;;;;;;4.38;2.75;;;5.40;99.90;;;;;;5076912;28;20498;-84
2023/04/26 07:18:41;;;;;;;1.70;1.05;;;5.40;99.90;;;;;;5060503;28;20075;-84
2023/04/26 07:21:07;;;;;;;5.72;1.30;;;5.50;99.90;;;;;;5077547;28;20634;-84
2023/04/26 07:23:33;;;;;;;2.67;1.42;;;5.70;99.90;;;;;;5077402;28;20083;-84
2023/04/26 07:26:03;;;;;;;5.10;3.30;;;5.70;99.90;;;;;;5077196;28;20029;-84
2023/04/26 07:28:32;;;;;;;6.25;2.88;;;5.80;99.90;;;;;;5043406;28;20477;-84
2023/04/26 07:30:59;;;;;;;4.10;1.80;;;5.90;99.90;;;;;;5059602;28;20134;-84
2023/04/26 07:33:25;;;;;;;2.67;1.60;;;6.00;99.90;;;;;;5058960;28;20036;-84
2023/04/26 07:35:58;;;;;;;2.03;1.10;;;6.20;99.90;;;;;;5077007;28;20091;-84
2023/04/26 07:38:24;;;;;;;1.73;0.95;;;6.30;99.90;;;;;;5043137;28;20087;-84
2023/04/26 07:40:50;;;;;;;2.25;0.70;;;6.30;99.90;;;;;;5073604;28;20036;-84
2023/04/26 07:43:17;;;;;;;1.30;0.70;;;6.40;99.90;;;;;;5097116;28;20029;-84
2023/04/26 07:45:43;;;;;;;1.50;0.80;;;6.40;99.90;;;;;;5079121;28;20031;-84
2023/04/26 07:48:09;;;;;;;4.20;1.10;;;6.40;99.90;;;;;;5096880;28;20561;-84
2023/04/26 07:50:35;;;;;;;1.67;0.95;;;6.50;99.90;;;;;;5090850;28;20040;-84
2023/04/26 07:53:00;;;;;;;4.13;2.10;;;6.50;99.90;;;;;;5073956;28;20044;-84
2023/04/26 07:55:26;;;;;;;2.30;1.30;;;6.60;99.90;;;;;;5059391;28;20383;-84
2023/04/26 07:57:52;;;;;;;3.17;1.50;;;6.60;99.90;;;;;;5059324;28;20044;-84
2023/04/26 08:00:18;;;;;;;2.15;1.30;;;6.70;99.90;;;;;;5076025;28;20115;-84
2023/04/26 08:02:47;;;;;;;1.65;1.17;;;6.70;99.90;;;;;;5075683;28;20508;-84
2023/04/26 08:05:14;;;;;;;3.53;1.02;;;6.70;99.90;;;;;;5057718;28;20040;-84
2023/04/26 08:07:40;;;;;;;1.65;0.95;;;6.70;99.90;;;;;;5058440;28;20601;-84
2023/04/26 08:10:07;;;;;;;2.30;1.30;;;6.70;99.90;;;;;;5041452;28;20037;-84
2023/04/26 08:12:34;;;;;;;1.80;1.08;;;6.70;99.90;;;;;;5075620;28;20119;-84
2023/04/26 08:15:00;;;;;;;12.98;7.13;;;6.70;99.90;;;;;;5057798;28;20068;-84
2023/04/26 08:17:26;;;;;;;2.13;1.10;;;6.80;99.90;;;;;;5057495;28;20517;-84
2023/04/26 08:19:52;;;;;;;1.92;1.08;;;6.90;99.90;;;;;;5057950;28;20032;-84
2023/04/26 08:22:18;;;;;;;2.50;1.17;;;7.00;99.90;;;;;;5075810;28;20399;-84
2023/04/26 08:24:53;;;;;;;3.15;1.00;;;7.10;99.90;;;;;;5041423;28;20043;-84
2023/04/26 08:27:18;;;;;;;2.38;1.08;;;7.20;99.90;;;;;;5041954;28;20033;-83
2023/04/26 08:29:45;;;;;;;2.05;1.08;;;7.30;99.90;;;;;;5040553;28;20040;-84
2023/04/26 08:32:11;;;;;;;2.97;1.50;;;7.60;99.90;;;;;;5057553;28;20486;-83
2023/04/26 08:34:37;;;;;;;2.85;1.38;;;7.80;99.90;;;;;;5056236;28;20037;-84
2023/04/26 08:37:04;;;;;;;2.10;1.35;;;8.00;99.90;;;;;;5057238;28;20082;-83
2023/04/26 08:39:30;;;;;;;3.95;1.73;;;8.10;99.90;;;;;;5077763;28;20036;-83
2023/04/26 08:42:02;;;;;;;2.35;1.42;;;8.10;99.90;;;;;;5077409;28;20500;-83
2023/04/26 08:44:30;;;;;;;2.25;1.30;;;8.20;99.90;;;;;;5095756;28;20093;-83
2023/04/26 08:47:17;;;;;;;2.03;1.05;;;8.20;99.90;;;;;;5083932;28;20123;-83
2023/04/26 08:49:46;;;;;;;2.03;0.93;;;8.30;99.90;;;;;;5057276;28;20122;-83
2023/04/26 08:52:13;;;;;;;2.38;1.27;;;8.40;99.90;;;;;;5041484;28;20132;-83
2023/04/26 08:54:40;;;;;;;2.00;1.20;;;8.60;99.90;;;;;;5058019;28;20447;-83
2023/04/26 08:57:07;;;;;;;1.17;0.82;;;8.80;99.90;;;;;;5075458;28;20119;-83
2023/04/26 08:59:36;;;;;;;1.92;1.10;;;8.90;99.90;;;;;;5075438;28;20029;-83
2023/04/26 09:02:05;;;;;;;2.63;1.27;;;9.10;99.90;;;;;;5040857;28;20045;-83
2023/04/26 09:04:31;;;;;;;2.15;1.10;;;9.10;99.90;;;;;;5057127;28;20029;-83
2023/04/26 09:07:01;;;;;;;3.38;1.30;;;9.20;99.90;;;;;;5041038;28;20039;-83
2023/04/26 09:09:33;;;;;;;4.15;1.20;;;9.10;99.90;;;;;;5056964;28;20433;-83
2023/04/26 09:12:01;;;;;;;3.08;1.10;;;9.10;99.90;;;;;;5057426;28;20032;-83
2023/04/26 09:14:27;;;;;;;3.80;1.17;;;9.10;99.90;;;;;;5057462;28;20043;-83
2023/04/26 09:16:54;;;;;;;2.28;1.42;;;9.00;99.90;;;;;;5065185;28;20041;-83
2023/04/26 09:19:39;;;;;;;3.17;1.70;;;9.00;99.90;;;;;;5057295;28;20115;-83
2023/04/26 09:22:05;;;;;;;2.85;1.20;;;9.10;99.90;;;;;;5057363;28;20033;-83
2023/04/26 09:24:47;;;;;;;2.33;1.10;;;9.10;99.90;;;;;;5057144;28;20481;-83
2023/04/26 09:27:15;;;;;;;2.38;1.10;;;9.20;99.90;;;;;;5057276;28;20052;-82
2023/04/26 09:29:58;;;;;;;1.58;0.80;;;9.20;99.90;;;;;;5057703;28;20128;-82
2023/04/26 09:32:25;;;;;;;2.33;1.00;;;9.20;99.90;;;;;;5057137;28;20040;-83
2023/04/26 09:34:50;;;;;;;2.83;1.30;;;9.20;99.90;;;;;;5057135;28;20040;-83
2023/04/26 09:37:16;;;;;;;2.35;1.13;;;9.20;99.90;;;;;;5057428;28;20033;-82
2023/04/26 09:39:42;;;;;;;2.33;0.85;;;9.40;99.90;;;;;;5074886;28;20033;-82
2023/04/26 09:42:10;;;;;;;2.75;1.00;;;9.60;99.90;;;;;;5056565;28;20422;-82
2023/04/26 09:44:36;;;;;;;1.30;0.80;;;9.90;99.90;;;;;;5040885;28;20036;-82
2023/04/26 09:47:05;;;;;;;2.45;0.88;;;10.10;99.90;;;;;;5070315;28;20031;-82
2023/04/26 09:49:47;;;;;;;2.15;0.88;;;10.20;99.90;;;;;;5073534;28;20117;-82
2023/04/26 09:52:13;;;;;;;1.30;0.60;;;10.30;99.90;;;;;;5073607;28;20037;-82
2023/04/26 09:54:43;;;;;;;2.13;0.90;;;10.30;99.90;;;;;;5057156;28;20037;-82
2023/04/26 09:57:11;;;;;;;4.65;0.90;;;10.30;99.90;;;;;;5075432;28;20035;-82
2023/04/26 09:59:43;;;;;;;1.45;0.90;;;10.30;99.90;;;;;;5056683;28;20090;-82
2023/04/26 10:02:21;;;;;;;0.82;0.60;;;10.30;99.90;;;;;;5040681;28;20029;-82
2023/04/26 10:04:55;;;;;;;1.25;0.70;;;10.40;99.90;;;;;;5057287;28;20028;-82
2023/04/26 10:07:23;;;;;;;1.30;0.80;;;10.40;99.90;;;;;;5057366;28;20032;-82
2023/04/26 10:09:50;;;;;;;1.67;0.80;;;10.20;99.90;;;;;;5057341;28;20036;-81
2023/04/26 10:12:18;;;;;;;1.15;0.70;;;10.20;99.90;;;;;;5058324;28;20085;-81
2023/04/26 10:14:45;;;;;;;1.65;0.90;;;10.30;99.90;;;;;;5075283;28;20032;-81
2023/04/26 10:17:12;;;;;;;1.75;0.85;;;10.50;99.90;;;;;;5089188;28;20034;-81
2023/04/26 10:19:40;;;;;;;4.00;1.75;;;10.70;99.90;;;;;;5077052;28;20043;-81
2023/04/26 10:22:34;;;;;;;2.08;0.75;;;10.80;99.90;;;;;;5077474;28;20028;-81
2023/04/26 10:25:00;;;;;;;1.75;0.80;;;11.00;99.90;;;;;;5083965;28;20050;-81
2023/04/26 10:27:45;;;;;;;4.00;1.30;;;11.20;99.90;;;;;;5072597;28;20557;-81
2023/04/26 10:30:12;;;;;;;3.00;1.08;;;11.40;99.90;;;;;;5072650;28;20043;-81
2023/04/26 10:32:56;;;;;;;2.65;1.20;;;11.40;99.90;;;;;;5088791;28;20488;-81
2023/04/26 10:35:26;;;;;;;1.95;0.90;;;11.40;99.90;;;;;;5096166;28;20032;-81
2023/04/26 10:38:00;;;;;;;2.22;0.85;;;11.30;99.90;;;;;;5092904;28;20405;-81
2023/04/26 10:40:36;;;;;;;2.45;1.00;;;11.10;99.90;;;;;;5076068;28;20505;-81
2023/04/26 10:43:08;;;;;;;2.83;1.30;;;11.30;99.90;;;;;;5092957;28;20028;-81
2023/04/26 10:45:34;;;;;;;2.63;1.00;;;11.60;99.90;;;;;;5093926;28;20039;-81
2023/04/26 10:48:19;;;;;;;3.58;1.00;;;11.90;99.90;;;;;;5076091;28;20047;-81
2023/04/26 10:51:17;;;;;;;1.67;0.80;;;12.10;99.90;;;;;;5094018;28;20028;-81
2023/04/26 10:53:43;;;;;;;2.38;1.13;;;12.20;99.10;;;;;;5081252;28;20039;-81
2023/04/26 10:56:09;;;;;;;1.85;1.05;;;12.10;99.90;;;;;;5101672;28;20029;-81
2023/04/26 10:58:39;;;;;;;1.73;1.10;;;11.80;99.90;;;;;;5066670;28;20060;-81
2023/04/26 11:01:06;;;;;;;4.47;1.38;;;11.60;99.90;;;;;;5084025;28;20040;-81
2023/04/26 11:03:31;;;;;;;2.00;1.08;;;11.40;99.90;;;;;;5083047;28;20043;-81
2023/04/26 11:05:57;;;;;;;2.28;1.00;;;11.20;99.90;;;;;;5076723;28;20025;-81
2023/04/26 11:08:29;;;;;;;1.52;0.88;;;11.10;99.90;;;;;;5060753;28;20040;-81
2023/04/26 11:11:09;;;;;;;1.52;0.90;;;11.00;99.90;;;;;;5065241;28;20033;-81
2023/04/26 11:13:39;;;;;;;2.17;1.02;;;10.90;99.90;;;;;;5065355;28;20043;-81
2023/04/26 11:16:10;;;;;;;3.22;1.05;;;10.90;99.90;;;;;;5069778;28;20043;-81
2023/04/26 11:18:39;;;;;;;3.00;0.90;;;10.90;99.20;;;;;;5085808;28;20036;-81
2023/04/26 11:21:06;;;;;;;2.20;1.02;;;10.90;99.90;;;;;;5103175;28;20024;-81
2023/04/26 11:23:32;;;;;;;2.55;1.10;;;11.10;99.90;;;;;;5085005;28;20032;-81
2023/04/26 11:26:07;;;;;;;2.55;0.90;;;11.30;99.10;;;;;;5084681;28;20029;-81
2023/04/26 11:28:34;;;;;;;1.67;0.80;;;11.40;99.40;;;;;;5065870;28;20082;-80
2023/04/26 11:31:05;;;;;;;4.65;1.92;;;11.40;99.90;;;;;;5067299;28;20037;-81
2023/04/26 11:33:32;;;;;;;2.20;0.80;;;11.60;99.90;;;;;;5079264;28;20032;-81
2023/04/26 11:35:58;;;;;;;2.00;0.85;;;11.90;99.90;;;;;;5066540;28;20060;-81
2023/04/26 11:38:27;;;;;;;2.67;0.80;;;12.10;96.50;;;;;;5100585;28;20032;-80
2023/04/26 11:41:00;;;;;;;2.97;0.82;;;12.10;97.90;;;;;;5082456;28;20063;-81
2023/04/26 11:43:44;;;;;;;1.70;1.00;;;12.20;96.90;;;;;;5078322;28;20394;-81
2023/04/26 11:46:10;;;;;;;3.22;1.02;;;12.10;96.40;;;;;;5096570;28;20032;-81
2023/04/26 11:48:37;;;;;;;2.08;0.85;;;12.10;95.10;;;;;;5048363;28;20167;-79
2023/04/26 11:51:04;;;;;;;13.95;1.30;;;11.90;94.80;;;;;;5063293;28;20119;-81
2023/04/26 11:53:41;;;;;;;2.90;1.10;;;11.90;95.30;;;;;;5070038;28;20024;-81
2023/04/26 11:56:18;;;;;;;2.75;0.90;;;11.90;95.20;;;;;;5090912;28;20098;-81
2023/04/26 11:58:44;;;;;;;1.90;1.20;;;11.80;95.40;;;;;;5071210;28;20032;-81
2023/04/26 12:01:10;;;;;;;3.20;1.15;;;11.90;96.50;;;;;;5047456;28;20048;-81
2023/04/26 12:03:39;;;;;;;2.92;1.00;;;11.90;96.40;;;;;;5064709;28;20459;-81
2023/04/26 12:06:05;;;;;;;2.53;1.00;;;11.90;95.80;;;;;;5081512;28;20029;-81
2023/04/26 12:08:32;;;;;;;1.73;0.98;;;12.00;96.80;;;;;;5063452;28;20036;-81
2023/04/26 12:11:02;;;;;;;3.67;1.48;;;12.10;95.80;;;;;;5045749;28;20131;-81
2023/04/26 12:13:31;;;;;;;1.60;0.85;;;12.30;95.80;;;;;;5081781;28;20059;-80
2023/04/26 12:15:57;;;;;;;2.35;0.82;;;12.40;96.20;;;;;;5083704;28;20036;-80
2023/04/26 12:18:30;;;;;;;4.80;0.90;;;12.50;93.40;;;;;;5071419;28;20422;-80
2023/04/26 12:20:59;;;;;;;2.97;0.90;;;12.40;94.30;;;;;;5059377;28;20047;-80
2023/04/26 12:23:26;;;;;;;2.05;0.90;;;12.30;92.60;;;;;;5082410;28;20070;-80
2023/04/26 12:25:53;;;;;;;3.60;1.08;;;12.00;93.30;;;;;;5056887;28;20478;-79
2023/04/26 12:28:20;;;;;;;3.60;1.00;;;11.80;93.90;;;;;;5062451;28;20040;-79
2023/04/26 12:30:46;;;;;;;2.72;1.00;;;11.70;94.20;;;;;;5089246;28;20498;-79
2023/04/26 12:33:11;;;;;;;2.00;1.00;;;11.60;95.60;;;;;;5060985;28;20040;-80
2023/04/26 12:35:37;;;;;;;3.92;1.00;;;11.60;95.60;;;;;;5067326;28;20041;-80
2023/04/26 12:38:03;;;;;;;2.03;1.15;;;11.70;94.60;;;;;;5090040;28;20032;-80
2023/04/26 12:40:30;;;;;;;2.22;1.00;;;11.80;93.60;;;;;;5068377;28;20056;-80
2023/04/26 12:42:56;;;;;;;2.08;1.00;;;11.90;91.70;;;;;;5092864;28;20111;-80
2023/04/26 12:45:24;;;;;;;3.58;1.02;;;12.00;93.00;;;;;;5094118;28;20112;-81
2023/04/26 12:47:50;;;;;;;3.28;1.10;;;12.10;93.00;;;;;;5070101;28;20043;-80
2023/04/26 12:50:16;;;;;;;1.92;1.00;;;12.20;92.50;;;;;;5050833;28;20043;-80
2023/04/26 12:52:43;;;;;;;3.33;0.80;;;12.30;94.00;;;;;;5062013;28;20044;-81
2023/04/26 12:55:10;;;;;;;3.13;1.10;;;12.60;93.30;;;;;;5077938;28;20132;-81
2023/04/26 12:57:37;;;;;;;4.00;1.10;;;12.90;90.70;;;;;;5074208;28;20028;-80